Time;durP1;ratioP1;P1;durP2;ratioP2;P2;SDS_P1;SDS_P2;PMS_P1;PMS_P2;Temp;Humidity;BMP_temperature;BMP_pressure;BME280_temperature;BME280_humidity;BME280_pressure;Samples;Min_cycle;Max_cycle;Signal;HPM_P1;HPM_P2
2021/04/11 00:00:20;;;;;;;19.63;12.15;;;9.20;75.30;;;;;;5010289;28;20022;-69
2021/04/11 00:02:46;;;;;;;17.23;12.00;;;9.20;74.90;;;;;;5011476;28;20034;-68
2021/04/11 00:05:14;;;;;;;19.15;11.80;;;9.30;74.80;;;;;;5011302;28;20075;-69
2021/04/11 00:07:39;;;;;;;23.13;12.95;;;9.30;74.40;;;;;;5010683;28;20030;-69
2021/04/11 00:10:13;;;;;;;22.85;12.20;;;9.40;74.30;;;;;;5011308;28;20389;-69
2021/04/11 00:12:39;;;;;;;18.10;12.13;;;9.40;74.40;;;;;;5011524;28;20068;-69
2021/04/11 00:15:07;;;;;;;19.65;11.68;;;9.30;74.60;;;;;;5007712;28;20058;-69
2021/04/11 00:17:33;;;;;;;23.55;13.10;;;9.40;74.70;;;;;;4991144;28;20022;-70
2021/04/11 00:19:59;;;;;;;25.35;12.82;;;9.30;74.40;;;;;;4991968;28;20380;-68
2021/04/11 00:22:24;;;;;;;17.90;12.18;;;9.30;74.70;;;;;;4991599;28;20018;-70
2021/04/11 00:24:50;;;;;;;21.33;12.68;;;9.30;74.60;;;;;;4990731;28;20022;-68
2021/04/11 00:27:15;;;;;;;17.65;11.95;;;9.30;74.60;;;;;;4991551;28;20488;-69
2021/04/11 00:29:41;;;;;;;22.15;12.55;;;9.40;74.40;;;;;;5007700;28;20539;-69
2021/04/11 00:32:08;;;;;;;17.77;11.27;;;9.40;74.50;;;;;;4992081;28;20026;-70
2021/04/11 00:34:33;;;;;;;17.73;11.13;;;9.40;74.40;;;;;;4991987;28;20496;-69
2021/04/11 00:36:59;;;;;;;21.08;11.23;;;9.50;73.90;;;;;;4989414;28;20033;-70
2021/04/11 00:39:25;;;;;;;15.25;10.80;;;9.50;73.70;;;;;;5010408;28;20022;-70
2021/04/11 00:41:56;;;;;;;19.80;10.75;;;9.50;73.90;;;;;;5011966;28;20062;-70
2021/04/11 00:44:22;;;;;;;15.20;10.57;;;9.50;73.80;;;;;;5015388;28;20022;-70
2021/04/11 00:46:51;;;;;;;21.10;11.52;;;9.50;73.50;;;;;;5014299;28;20032;-70
2021/04/11 00:49:31;;;;;;;17.50;10.63;;;9.60;73.30;;;;;;5015354;28;20022;-70
2021/04/11 00:51:58;;;;;;;18.88;10.38;;;9.60;73.30;;;;;;5014086;28;20033;-71
2021/04/11 00:54:23;;;;;;;19.20;10.25;;;9.60;73.30;;;;;;5033064;22;20041;-65
2021/04/11 00:56:50;;;;;;;17.60;10.20;;;9.60;73.10;;;;;;5052080;28;20040;-67
2021/04/11 00:59:19;;;;;;;17.95;10.20;;;9.70;73.00;;;;;;5054093;28;20033;-66
2021/04/11 01:01:44;;;;;;;15.70;10.10;;;9.70;72.80;;;;;;5054270;28;20037;-66
2021/04/11 01:04:14;;;;;;;19.92;10.20;;;9.70;72.60;;;;;;5052654;28;20458;-65
2021/04/11 01:06:54;;;;;;;14.88;9.90;;;9.80;72.10;;;;;;5033399;28;20017;-66
2021/04/11 01:09:26;;;;;;;16.53;10.37;;;9.80;72.20;;;;;;5034112;28;20426;-66
2021/04/11 01:11:54;;;;;;;16.83;9.57;;;9.80;72.20;;;;;;5034028;28;20619;-65
2021/04/11 01:14:20;;;;;;;20.63;10.55;;;9.80;72.40;;;;;;5034706;28;20025;-66
2021/04/11 01:16:46;;;;;;;16.63;9.77;;;9.70;72.50;;;;;;5033255;28;20032;-66
2021/04/11 01:19:33;;;;;;;20.88;9.50;;;9.70;72.60;;;;;;5033764;28;20372;-67
2021/04/11 01:22:36;;;;;;;20.98;10.40;;;9.70;72.80;;;;;;5033862;28;20022;-67
2021/04/11 01:25:17;;;;;;;19.75;10.13;;;9.60;72.90;;;;;;5032716;28;20120;-67
2021/04/11 01:27:42;;;;;;;19.48;9.95;;;9.60;73.20;;;;;;5032980;28;20116;-66
2021/04/11 01:30:23;;;;;;;18.75;10.32;;;9.60;72.70;;;;;;5033727;28;20457;-66
2021/04/11 01:32:50;;;;;;;11.90;9.18;;;9.60;72.70;;;;;;5033863;28;20029;-66
2021/04/11 01:35:18;;;;;;;15.43;9.23;;;9.70;72.60;;;;;;5033561;28;20096;-66
2021/04/11 01:37:45;;;;;;;14.88;9.20;;;9.60;72.60;;;;;;5031830;28;20017;-66
2021/04/11 01:40:14;;;;;;;16.45;10.15;;;9.60;72.70;;;;;;5032342;28;20067;-66
2021/04/11 01:42:40;;;;;;;21.33;10.50;;;9.60;72.70;;;;;;5032433;28;20120;-67
2021/04/11 01:45:15;;;;;;;19.90;11.82;;;9.60;72.80;;;;;;5033382;28;20443;-67
2021/04/11 01:47:41;;;;;;;19.88;10.00;;;9.60;73.10;;;;;;5034638;28;20025;-66
2021/04/11 01:50:11;;;;;;;16.85;9.05;;;9.60;72.50;;;;;;5033350;28;20033;-66
2021/04/11 01:52:38;;;;;;;14.50;9.25;;;9.70;72.30;;;;;;5032301;28;20045;-66
2021/04/11 01:55:06;;;;;;;14.25;9.02;;;9.70;72.20;;;;;;5032603;28;20049;-66
2021/04/11 01:57:33;;;;;;;16.88;9.55;;;9.70;71.70;;;;;;5032615;28;20061;-66
2021/04/11 02:00:11;;;;;;;14.18;8.75;;;9.80;71.60;;;;;;5031894;28;20048;-66
2021/04/11 02:02:37;;;;;;;15.65;9.00;;;9.80;71.50;;;;;;5033140;28;20021;-66
2021/04/11 02:05:09;;;;;;;16.23;8.85;;;9.90;71.40;;;;;;5032873;28;20506;-66
2021/04/11 02:07:36;;;;;;;15.30;8.38;;;9.90;71.30;;;;;;5032194;28;20037;-66
2021/04/11 02:10:05;;;;;;;13.90;8.75;;;9.90;71.40;;;;;;5031844;28;20052;-66
2021/04/11 02:12:30;;;;;;;16.05;9.82;;;9.90;71.30;;;;;;5032869;28;20026;-66
2021/04/11 02:14:57;;;;;;;14.20;9.05;;;9.80;71.50;;;;;;5033571;28;20044;-66
2021/04/11 02:17:22;;;;;;;14.45;8.90;;;9.90;71.40;;;;;;5032201;28;20108;-67
2021/04/11 02:19:51;;;;;;;13.55;9.18;;;9.80;71.70;;;;;;5033375;28;20499;-67
2021/04/11 02:22:25;;;;;;;13.07;8.73;;;9.80;71.50;;;;;;5032820;28;20017;-66
2021/04/11 02:24:53;;;;;;;14.93;8.63;;;9.90;71.40;;;;;;5032678;28;20017;-66
2021/04/11 02:27:21;;;;;;;13.68;8.25;;;9.80;71.50;;;;;;5031895;28;20040;-67
2021/04/11 02:29:46;;;;;;;15.32;8.98;;;9.90;71.30;;;;;;5033047;28;20026;-67
2021/04/11 02:32:14;;;;;;;15.93;9.30;;;9.80;71.10;;;;;;5033520;28;20076;-66
2021/04/11 02:34:40;;;;;;;18.02;9.55;;;9.80;71.10;;;;;;5032883;28;20021;-66
2021/04/11 02:37:20;;;;;;;18.17;9.88;;;9.80;71.30;;;;;;5030405;28;20087;-66
2021/04/11 02:39:48;;;;;;;15.13;9.23;;;9.80;71.30;;;;;;5013355;28;20053;-67
2021/04/11 02:42:17;;;;;;;17.45;8.85;;;9.70;71.30;;;;;;5013742;28;20022;-66
2021/04/11 02:44:45;;;;;;;15.23;9.20;;;9.70;71.30;;;;;;5012642;28;20037;-66
2021/04/11 02:47:13;;;;;;;14.88;8.90;;;9.70;71.30;;;;;;5012087;28;20037;-66
2021/04/11 02:49:39;;;;;;;13.13;8.73;;;9.70;71.40;;;;;;5011338;28;20388;-66
2021/04/11 02:52:16;;;;;;;14.88;9.43;;;9.60;71.40;;;;;;5012783;28;20052;-67
2021/04/11 02:54:42;;;;;;;17.02;9.57;;;9.60;71.30;;;;;;5013376;28;20018;-67
2021/04/11 02:57:09;;;;;;;20.85;9.05;;;9.60;71.40;;;;;;5012340;28;20026;-67
2021/04/11 02:59:35;;;;;;;13.18;8.65;;;9.60;71.40;;;;;;5011781;28;20040;-66
2021/04/11 03:02:01;;;;;;;17.20;9.52;;;9.60;71.40;;;;;;5013191;28;20014;-67
2021/04/11 03:04:27;;;;;;;14.43;8.85;;;9.60;71.20;;;;;;5012677;28;20030;-65
2021/04/11 03:07:00;;;;;;;15.27;9.02;;;9.60;71.20;;;;;;5010390;28;20530;-66
2021/04/11 03:09:40;;;;;;;15.23;8.98;;;9.60;71.00;;;;;;5012772;28;20022;-66
2021/04/11 03:12:06;;;;;;;16.25;8.90;;;9.60;71.20;;;;;;5012320;28;20057;-65
2021/04/11 03:14:35;;;;;;;12.50;8.75;;;9.60;71.10;;;;;;5017240;28;20030;-65
2021/04/11 03:17:03;;;;;;;14.40;8.50;;;9.60;71.00;;;;;;5011542;28;20064;-67
2021/04/11 03:19:34;;;;;;;14.70;8.68;;;9.60;70.80;;;;;;5012391;28;20034;-67
2021/04/11 03:21:59;;;;;;;14.88;8.93;;;9.60;70.60;;;;;;5012539;28;20017;-66
2021/04/11 03:24:25;;;;;;;14.52;8.40;;;9.60;70.50;;;;;;5012356;28;20030;-66
2021/04/11 03:27:03;;;;;;;14.43;8.20;;;9.60;70.60;;;;;;5012379;28;20021;-66
2021/04/11 03:29:48;;;;;;;13.35;8.27;;;9.60;70.50;;;;;;5013113;28;20480;-66
2021/04/11 03:32:22;;;;;;;12.82;7.80;;;9.60;70.50;;;;;;5011931;28;20030;-66
2021/04/11 03:34:50;;;;;;;12.07;8.05;;;9.70;70.40;;;;;;5007833;28;20025;-67
2021/04/11 03:37:17;;;;;;;18.23;9.40;;;9.70;70.00;;;;;;5020178;28;20039;-67
2021/04/11 03:39:43;;;;;;;16.88;8.88;;;9.70;70.00;;;;;;5028013;28;20029;-67
2021/04/11 03:42:13;;;;;;;15.35;8.52;;;9.70;69.80;;;;;;5031605;28;20139;-67
2021/04/11 03:44:39;;;;;;;13.35;8.98;;;9.70;69.90;;;;;;5031575;28;20025;-67
2021/04/11 03:47:11;;;;;;;14.68;8.15;;;9.70;70.20;;;;;;5030665;28;20052;-68
2021/04/11 03:50:03;;;;;;;15.32;9.02;;;9.70;69.70;;;;;;5031286;28;20078;-66
2021/04/11 03:52:37;;;;;;;11.93;8.25;;;9.70;69.80;;;;;;5031589;28;20032;-67
2021/04/11 03:55:07;;;;;;;17.90;8.00;;;9.60;70.40;;;;;;5031361;28;20073;-66
2021/04/11 03:57:51;;;;;;;13.52;8.38;;;9.60;69.80;;;;;;5029811;28;20040;-66
2021/04/11 04:00:23;;;;;;;16.33;8.05;;;9.70;69.50;;;;;;5016072;28;20021;-66
2021/04/11 04:02:50;;;;;;;17.52;8.73;;;9.60;69.60;;;;;;5031639;28;20017;-65
2021/04/11 04:05:21;;;;;;;15.02;8.30;;;9.70;69.60;;;;;;5031331;28;20056;-65
2021/04/11 04:07:53;;;;;;;15.20;8.18;;;9.70;69.40;;;;;;5030818;28;20022;-65
2021/04/11 04:10:21;;;;;;;17.50;7.65;;;9.70;69.50;;;;;;5031110;28;20030;-65
2021/04/11 04:13:03;;;;;;;13.50;8.32;;;9.60;69.10;;;;;;5031315;28;20543;-66
2021/04/11 04:15:36;;;;;;;14.80;8.88;;;9.60;69.80;;;;;;5031776;28;20075;-66
2021/04/11 04:18:18;;;;;;;14.60;8.40;;;9.60;69.60;;;;;;5034000;28;20025;-66
2021/04/11 04:20:56;;;;;;;14.02;8.68;;;9.60;69.50;;;;;;5034922;28;20025;-66
2021/04/11 04:23:38;;;;;;;13.02;8.45;;;9.50;70.00;;;;;;5034921;28;20053;-66
2021/04/11 04:26:32;;;;;;;13.90;8.57;;;9.50;69.70;;;;;;5033255;28;20049;-66
2021/04/11 04:29:20;;;;;;;15.63;7.55;;;9.50;70.40;;;;;;5034772;28;20025;-65
2021/04/11 04:32:22;;;;;;;12.10;8.23;;;9.40;70.00;;;;;;5035069;28;20399;-66
2021/04/11 04:35:20;;;;;;;14.18;8.25;;;9.40;69.70;;;;;;5035435;28;20028;-66
2021/04/11 04:38:03;;;;;;;17.40;8.20;;;9.30;70.10;;;;;;5032522;28;20071;-67
2021/04/11 04:40:38;;;;;;;15.82;8.05;;;9.30;69.60;;;;;;5034823;28;20025;-66
2021/04/11 04:43:15;;;;;;;18.40;9.15;;;9.30;69.50;;;;;;5034627;28;20415;-65
2021/04/11 04:45:52;;;;;;;13.80;8.20;;;9.30;69.70;;;;;;5034320;28;20030;-66
2021/04/11 04:48:23;;;;;;;16.00;8.55;;;9.40;69.40;;;;;;5034060;28;20021;-66
2021/04/11 04:50:58;;;;;;;13.23;8.18;;;9.50;68.80;;;;;;5034508;28;20036;-67
2021/04/11 04:53:43;;;;;;;13.18;7.38;;;9.50;68.20;;;;;;5034483;28;20037;-67
2021/04/11 04:56:17;;;;;;;12.35;7.53;;;9.60;67.90;;;;;;5033530;28;20499;-66
2021/04/11 04:58:49;;;;;;;13.90;8.00;;;9.70;68.00;;;;;;5034440;28;20029;-67
2021/04/11 05:01:19;;;;;;;14.23;7.65;;;9.80;67.20;;;;;;5034293;28;20061;-66
2021/04/11 05:03:48;;;;;;;15.85;8.15;;;9.90;66.90;;;;;;5034114;28;20018;-67
2021/04/11 05:06:22;;;;;;;12.75;7.65;;;9.90;66.80;;;;;;5033338;28;20071;-66
2021/04/11 05:09:15;;;;;;;14.65;7.47;;;9.90;66.90;;;;;;5034195;28;20029;-67
2021/04/11 05:11:50;;;;;;;12.95;6.82;;;9.90;66.30;;;;;;5034133;28;20499;-67
2021/04/11 05:14:28;;;;;;;12.77;7.47;;;10.00;65.70;;;;;;5034821;28;20513;-66
2021/04/11 05:16:56;;;;;;;12.60;6.82;;;10.50;64.60;;;;;;5018333;28;20025;-67
2021/04/11 05:19:29;;;;;;;12.95;6.55;;;11.10;62.30;;;;;;5014063;28;20034;-67
2021/04/11 05:22:22;;;;;;;10.85;7.10;;;11.90;60.30;;;;;;5015177;28;20164;-66
2021/04/11 05:24:53;;;;;;;13.18;7.00;;;12.60;57.20;;;;;;5014143;28;20022;-67
2021/04/11 05:27:45;;;;;;;13.23;6.75;;;13.00;55.20;;;;;;5028815;28;20030;-66
2021/04/11 05:30:16;;;;;;;11.18;6.63;;;13.50;53.70;;;;;;5014335;28;20512;-67
2021/04/11 05:32:41;;;;;;;10.93;7.13;;;13.50;53.80;;;;;;5013897;28;20472;-66
2021/04/11 05:35:09;;;;;;;10.05;6.63;;;13.70;52.50;;;;;;5012253;28;20033;-66
2021/04/11 05:38:05;;;;;;;10.85;6.40;;;13.80;51.60;;;;;;5016141;28;20029;-66
2021/04/11 05:40:35;;;;;;;9.77;6.32;;;13.90;51.30;;;;;;5032391;28;20040;-66
2021/04/11 05:43:11;;;;;;;11.88;6.68;;;13.80;51.60;;;;;;5033433;28;20067;-66
2021/04/11 05:45:57;;;;;;;9.60;6.90;;;14.20;50.40;;;;;;5032232;28;20048;-66
2021/04/11 05:48:36;;;;;;;13.70;6.47;;;14.40;49.70;;;;;;5021536;28;20105;-67
2021/04/11 05:51:22;;;;;;;10.65;5.93;;;14.90;47.70;;;;;;5032111;28;20542;-66
2021/04/11 05:53:52;;;;;;;10.25;5.72;;;15.00;47.50;;;;;;5021537;28;20049;-66
2021/04/11 05:56:27;;;;;;;11.23;6.30;;;14.90;46.50;;;;;;5032380;28;20550;-66
2021/04/11 05:59:02;;;;;;;9.98;5.97;;;14.70;48.30;;;;;;5035297;28;20115;-67
2021/04/11 06:01:49;;;;;;;10.80;5.70;;;15.10;47.20;;;;;;5032052;28;20017;-67
2021/04/11 06:04:34;;;;;;;11.52;6.00;;;15.50;45.70;;;;;;5032952;28;20026;-66
2021/04/11 06:07:17;;;;;;;7.85;5.28;;;16.50;43.40;;;;;;5032309;28;20108;-66
2021/04/11 06:09:48;;;;;;;11.85;5.55;;;16.40;42.80;;;;;;5031981;28;20641;-66
2021/04/11 06:12:33;;;;;;;15.73;5.30;;;16.50;43.20;;;;;;5031675;28;20574;-67
2021/04/11 06:15:09;;;;;;;11.50;5.43;;;16.30;42.90;;;;;;5032417;28;20034;-67
2021/04/11 06:17:36;;;;;;;7.18;4.68;;;16.00;43.20;;;;;;5031943;28;20105;-67
2021/04/11 06:20:05;;;;;;;11.38;5.20;;;16.00;43.30;;;;;;5031896;28;20542;-67
2021/04/11 06:23:17;;;;;;;11.40;5.88;;;16.40;42.50;;;;;;5032676;28;20021;-65
2021/04/11 06:26:05;;;;;;;8.63;4.88;;;15.90;43.20;;;;;;5032401;28;20044;-67
2021/04/11 06:28:36;;;;;;;11.80;4.95;;;15.80;43.70;;;;;;5032541;28;20071;-66
2021/04/11 06:31:05;;;;;;;8.25;4.68;;;16.10;42.60;;;;;;5032708;28;20029;-67
2021/04/11 06:33:31;;;;;;;8.30;4.80;;;16.70;41.60;;;;;;5031644;28;20102;-67
2021/04/11 06:36:17;;;;;;;9.48;4.55;;;17.40;39.90;;;;;;5032537;28;20417;-66
2021/04/11 06:38:52;;;;;;;7.00;4.50;;;17.80;38.90;;;;;;5030779;28;20499;-66
2021/04/11 06:41:49;;;;;;;10.48;4.13;;;18.20;37.80;;;;;;5032802;28;20025;-67
2021/04/11 06:44:29;;;;;;;9.10;4.47;;;18.30;36.90;;;;;;5032490;28;20034;-67
2021/04/11 06:47:06;;;;;;;7.05;4.13;;;16.80;40.10;;;;;;5030520;28;20025;-67
2021/04/11 06:50:06;;;;;;;7.47;3.90;;;16.90;39.90;;;;;;5029479;28;20036;-68
2021/04/11 06:52:44;;;;;;;10.98;4.20;;;16.00;41.00;;;;;;5027505;28;20030;-68
2021/04/11 06:55:32;;;;;;;7.55;4.10;;;15.10;43.20;;;;;;5042123;23;20026;-70
2021/04/11 06:58:28;;;;;;;7.70;4.70;;;14.70;44.50;;;;;;5031013;28;20564;-70
2021/04/11 07:01:31;;;;;;;9.55;4.57;;;14.50;45.10;;;;;;5002647;28;20055;-67
2021/04/11 07:04:30;;;;;;;6.20;4.07;;;14.70;45.00;;;;;;5030484;28;20026;-71
2021/04/11 07:07:29;;;;;;;8.65;4.53;;;14.90;45.20;;;;;;5030660;28;20027;-71
2021/04/11 07:10:32;;;;;;;9.60;4.80;;;15.30;44.60;;;;;;5031470;28;20502;-69
2021/04/11 07:13:15;;;;;;;7.05;3.67;;;15.70;43.00;;;;;;5031582;28;20068;-70
2021/04/11 07:16:19;;;;;;;6.85;3.85;;;16.40;40.50;;;;;;5032378;28;20556;-70
2021/04/11 07:19:24;;;;;;;9.07;4.15;;;15.70;42.30;;;;;;5031401;28;20064;-68
2021/04/11 07:21:58;;;;;;;7.72;3.53;;;16.00;41.40;;;;;;5031452;28;20075;-68
2021/04/11 07:24:42;;;;;;;8.73;3.70;;;15.80;41.60;;;;;;5031071;28;20071;-69
2021/04/11 07:27:45;;;;;;;6.32;3.75;;;16.20;41.30;;;;;;5029027;28;20022;-70
2021/04/11 07:30:23;;;;;;;7.00;3.95;;;16.20;40.40;;;;;;5031382;28;20117;-69
2021/04/11 07:33:30;;;;;;;7.10;3.40;;;16.50;40.50;;;;;;5046270;28;20032;-70
2021/04/11 07:36:39;;;;;;;14.88;4.38;;;16.90;39.60;;;;;;5031618;28;20022;-68
2021/04/11 07:39:41;;;;;;;10.43;4.10;;;17.00;39.60;;;;;;5028272;28;20032;-69
2021/04/11 07:42:50;;;;;;;12.23;3.40;;;17.80;38.20;;;;;;5032582;28;20026;-69
2021/04/11 07:45:28;;;;;;;9.82;3.97;;;18.80;36.10;;;;;;5031431;28;20033;-69
2021/04/11 07:48:05;;;;;;;10.57;3.67;;;18.90;34.50;;;;;;5030775;28;20032;-71
2021/04/11 07:50:50;;;;;;;4.40;2.83;;;20.00;34.70;;;;;;5031248;28;20027;-69
2021/04/11 07:53:59;;;;;;;8.25;3.47;;;19.30;34.60;;;;;;5034271;28;20112;-71
2021/04/11 07:56:37;;;;;;;7.82;3.58;;;19.10;34.20;;;;;;5034862;28;20041;-71
2021/04/11 07:59:33;;;;;;;16.63;3.50;;;19.50;32.70;;;;;;5035980;28;20049;-70
2021/04/11 08:02:20;;;;;;;7.60;3.40;;;20.10;32.90;;;;;;5035435;28;20418;-70
2021/04/11 08:05:23;;;;;;;8.63;3.10;;;21.20;31.80;;;;;;5037280;28;20105;-70
2021/04/11 08:07:57;;;;;;;9.50;3.42;;;22.00;29.30;;;;;;5042634;28;20032;-70
2021/04/11 08:10:42;;;;;;;7.55;3.53;;;21.90;30.10;;;;;;5045174;28;20021;-71
2021/04/11 08:13:31;;;;;;;8.50;3.78;;;22.40;29.60;;;;;;5044432;28;20028;-69
2021/04/11 08:16:17;;;;;;;7.32;3.28;;;22.50;28.20;;;;;;5034236;28;20029;-68
2021/04/11 08:18:56;;;;;;;6.03;3.00;;;22.70;28.80;;;;;;5033967;28;20029;-70
2021/04/11 08:21:35;;;;;;;7.80;3.80;;;22.60;29.10;;;;;;5034999;28;20442;-69
2021/04/11 08:24:29;;;;;;;9.52;3.60;;;22.50;28.70;;;;;;5034851;28;20021;-69
2021/04/11 08:27:09;;;;;;;6.68;3.40;;;22.10;28.90;;;;;;5032843;28;20029;-69
2021/04/11 08:30:10;;;;;;;8.02;3.10;;;21.70;29.10;;;;;;5034859;28;20497;-69
2021/04/11 08:33:12;;;;;;;5.32;3.83;;;21.10;29.90;;;;;;5034944;28;20033;-71
2021/04/11 08:36:06;;;;;;;5.60;3.45;;;20.80;30.80;;;;;;5034441;28;20033;-70
2021/04/11 08:38:43;;;;;;;7.07;3.65;;;21.00;30.10;;;;;;5032853;28;20037;-72
2021/04/11 08:41:39;;;;;;;7.80;4.00;;;21.20;30.10;;;;;;5034561;28;20484;-70
2021/04/11 08:44:19;;;;;;;5.25;3.28;;;21.00;30.50;;;;;;5034389;28;20022;-70
2021/04/11 08:47:14;;;;;;;7.35;3.33;;;21.30;29.60;;;;;;5032317;28;20436;-70
2021/04/11 08:49:55;;;;;;;8.60;3.67;;;20.90;30.00;;;;;;5034206;28;20025;-70
2021/04/11 08:52:36;;;;;;;;;;;20.90;30.50;;;;;;5035058;28;20455;-70
2021/04/11 08:55:10;;;;;;;7.32;3.58;;;21.00;30.20;;;;;;5033836;28;19909;-70
2021/04/11 08:57:46;;;;;;;4.95;3.28;;;20.00;31.20;;;;;;5033497;28;20048;-69
2021/04/11 09:00:19;;;;;;;7.75;3.70;;;19.40;32.50;;;;;;5034158;28;20025;-70
2021/04/11 09:02:52;;;;;;;7.70;4.00;;;18.90;34.00;;;;;;5032294;28;20026;-69
2021/04/11 09:05:43;;;;;;;6.35;3.33;;;18.60;35.20;;;;;;5033913;28;20024;-70
2021/04/11 09:08:23;;;;;;;7.22;4.07;;;19.30;33.80;;;;;;5033642;28;20033;-70
2021/04/11 09:11:04;;;;;;;6.78;4.20;;;20.50;32.80;;;;;;5034157;28;20052;-70
2021/04/11 09:14:14;;;;;;;12.13;4.53;;;21.30;30.20;;;;;;5032971;28;20029;-70
2021/04/11 09:17:19;;;;;;;8.23;4.00;;;20.60;31.40;;;;;;5013422;28;20025;-71
2021/04/11 09:20:08;;;;;;;6.72;3.97;;;20.00;32.90;;;;;;5012986;28;20088;-70
2021/04/11 09:22:53;;;;;;;6.28;3.92;;;19.60;33.60;;;;;;5014438;28;20018;-70
2021/04/11 09:25:28;;;;;;;10.57;4.72;;;19.00;33.90;;;;;;5013904;28;20026;-69
2021/04/11 09:28:31;;;;;;;8.02;4.20;;;19.20;34.20;;;;;;5013237;28;20468;-70
2021/04/11 09:31:27;;;;;;;8.45;3.95;;;19.50;33.90;;;;;;5023796;28;20163;-70
2021/04/11 09:34:08;;;;;;;8.75;3.88;;;19.10;35.40;;;;;;5033846;28;20491;-70
2021/04/11 09:36:50;;;;;;;7.45;3.72;;;18.70;34.60;;;;;;5035622;28;20345;-70
2021/04/11 09:39:49;;;;;;;8.27;4.43;;;18.70;35.90;;;;;;5015546;28;20038;-69
2021/04/11 09:42:36;;;;;;;7.30;4.13;;;19.60;34.70;;;;;;5017854;28;20025;-70
2021/04/11 09:45:04;;;;;;;8.60;4.10;;;20.00;33.50;;;;;;5033235;28;20022;-71
2021/04/11 09:48:00;;;;;;;6.75;4.18;;;20.20;34.40;;;;;;5032771;28;20391;-70
2021/04/11 09:50:39;;;;;;;11.15;5.30;;;19.90;32.80;;;;;;5033516;28;20022;-70
2021/04/11 09:53:41;;;;;;;9.57;4.45;;;19.70;34.10;;;;;;5033186;28;20025;-70
2021/04/11 09:56:13;;;;;;;10.32;4.10;;;19.60;34.40;;;;;;5032340;28;20037;-73
2021/04/11 09:58:50;;;;;;;7.82;4.05;;;19.70;33.80;;;;;;5031880;28;20025;-68
2021/04/11 10:01:39;;;;;;;9.15;3.78;;;19.40;35.90;;;;;;5033323;28;20025;-70
2021/04/11 10:04:23;;;;;;;6.30;3.92;;;19.50;34.70;;;;;;5032989;28;20512;-70
2021/04/11 10:07:26;;;;;;;9.23;4.15;;;19.30;34.30;;;;;;5032554;28;20026;-69
2021/04/11 10:10:15;;;;;;;10.07;4.57;;;19.10;35.80;;;;;;5032661;28;20104;-70
2021/04/11 10:13:18;;;;;;;7.07;4.05;;;18.70;34.90;;;;;;5031657;28;20067;-70
2021/04/11 10:15:48;;;;;;;8.10;4.28;;;18.30;36.40;;;;;;5031519;28;20025;-71
2021/04/11 10:19:00;;;;;;;6.75;4.32;;;17.90;36.20;;;;;;5031017;28;20500;-69
2021/04/11 10:21:44;;;;;;;;;;;18.00;36.80;;;;;;5031675;28;20029;-71
2021/04/11 10:24:44;;;;;;;7.13;4.47;;;18.00;37.30;;;;;;5032536;28;19913;-70
2021/04/11 10:27:32;;;;;;;8.93;4.43;;;18.00;37.30;;;;;;5030480;28;20526;-71
2021/04/11 10:30:00;;;;;;;7.45;4.20;;;18.00;38.40;;;;;;5031844;28;20033;-70
2021/04/11 10:32:39;;;;;;;9.25;4.00;;;18.00;37.70;;;;;;5032595;28;20057;-69
2021/04/11 10:35:19;;;;;;;8.55;4.05;;;17.90;37.50;;;;;;5032368;28;20018;-69
2021/04/11 10:37:56;;;;;;;7.22;4.28;;;17.90;38.60;;;;;;5030013;28;20022;-70
2021/04/11 10:40:28;;;;;;;7.40;4.47;;;18.00;38.80;;;;;;5032423;28;20495;-69
2021/04/11 10:43:24;;;;;;;7.05;4.22;;;17.80;38.60;;;;;;5032515;28;20021;-67
2021/04/11 10:45:51;;;;;;;7.07;4.53;;;17.80;39.10;;;;;;5030626;28;20589;-69
2021/04/11 10:48:43;;;;;;;9.20;4.80;;;18.00;39.40;;;;;;5031466;28;20597;-69
2021/04/11 10:51:45;;;;;;;7.68;4.55;;;18.10;38.20;;;;;;5032152;28;20025;-69
2021/04/11 10:54:46;;;;;;;8.50;4.47;;;18.10;39.20;;;;;;5032074;28;20025;-69
2021/04/11 10:57:45;;;;;;;10.80;4.45;;;18.00;37.30;;;;;;5031296;28;20041;-69
2021/04/11 11:00:26;;;;;;;8.98;4.93;;;18.00;37.30;;;;;;5031950;28;20033;-69
2021/04/11 11:02:55;;;;;;;6.90;4.43;;;18.00;38.10;;;;;;5032055;28;20422;-69
2021/04/11 11:05:50;;;;;;;7.63;4.25;;;18.20;37.10;;;;;;5032098;28;20514;-70
2021/04/11 11:08:45;;;;;;;11.52;4.55;;;18.20;36.90;;;;;;5030135;28;20112;-69
2021/04/11 11:11:40;;;;;;;13.02;4.90;;;18.20;37.20;;;;;;5032137;28;20526;-69
2021/04/11 11:14:09;;;;;;;7.50;4.47;;;18.50;37.00;;;;;;5031923;28;20080;-69
2021/04/11 11:16:56;;;;;;;8.57;4.38;;;18.50;37.10;;;;;;5031106;28;20032;-68
2021/04/11 11:19:59;;;;;;;8.63;4.40;;;18.70;36.40;;;;;;5030190;28;20030;-68
2021/04/11 11:22:55;;;;;;;9.23;4.30;;;18.50;37.10;;;;;;5030406;28;20079;-70
2021/04/11 11:25:47;;;;;;;8.23;4.40;;;18.70;36.50;;;;;;5031000;28;20026;-70
2021/04/11 11:28:24;;;;;;;9.48;4.78;;;18.70;37.60;;;;;;5031089;28;20032;-70
2021/04/11 11:31:31;;;;;;;10.05;4.40;;;18.80;36.90;;;;;;5031831;28;20069;-68
2021/04/11 11:34:26;;;;;;;7.28;4.28;;;18.90;36.90;;;;;;5047081;28;20029;-71
2021/04/11 11:37:12;;;;;;;10.90;4.72;;;18.70;36.60;;;;;;5029630;28;20136;-70
2021/04/11 11:40:07;;;;;;;9.10;5.10;;;18.80;36.30;;;;;;5011938;28;20034;-70
2021/04/11 11:42:59;;;;;;;10.82;4.88;;;18.70;36.70;;;;;;5006737;28;20422;-71
2021/04/11 11:45:28;;;;;;;6.70;4.45;;;18.70;36.60;;;;;;5010526;28;20360;-70
2021/04/11 11:48:06;;;;;;;10.52;5.28;;;18.80;37.30;;;;;;5011366;28;20022;-69
2021/04/11 11:50:36;;;;;;;9.05;4.30;;;18.70;36.50;;;;;;5012317;28;20572;-67
2021/04/11 11:53:06;;;;;;;12.65;5.05;;;18.50;37.80;;;;;;5012191;28;20030;-69
2021/04/11 11:55:44;;;;;;;8.68;4.80;;;18.70;38.30;;;;;;5011638;28;20116;-67
2021/04/11 11:58:22;;;;;;;8.95;4.30;;;18.90;36.90;;;;;;5010977;28;20088;-70
2021/04/11 12:01:02;;;;;;;7.03;4.28;;;19.00;36.90;;;;;;5010274;28;20025;-69
2021/04/11 12:03:32;;;;;;;10.43;4.60;;;19.30;35.90;;;;;;5011732;28;20111;-69
2021/04/11 12:06:33;;;;;;;10.10;4.88;;;19.00;36.30;;;;;;5011395;28;20025;-68
2021/04/11 12:09:21;;;;;;;6.57;4.55;;;18.90;36.50;;;;;;5011439;28;20036;-69
2021/04/11 12:11:55;;;;;;;14.38;5.15;;;19.00;36.80;;;;;;5011286;28;20116;-68
2021/04/11 12:14:44;;;;;;;8.77;5.20;;;19.20;37.90;;;;;;5019565;28;20025;-71
2021/04/11 12:17:26;;;;;;;10.85;5.72;;;19.20;36.90;;;;;;5030291;28;20025;-69
2021/04/11 12:20:08;;;;;;;10.23;5.25;;;19.30;36.50;;;;;;5029593;28;20036;-71
2021/04/11 12:22:43;;;;;;;10.20;5.03;;;19.20;36.90;;;;;;5031153;28;20180;-69
2021/04/11 12:25:25;;;;;;;9.38;5.45;;;19.30;36.90;;;;;;5030902;28;20032;-70
2021/04/11 12:27:51;;;;;;;8.45;4.82;;;19.30;36.30;;;;;;5030588;28;20021;-70
2021/04/11 12:30:38;;;;;;;9.65;5.57;;;19.10;37.20;;;;;;5030562;28;20029;-70
2021/04/11 12:33:19;;;;;;;7.70;5.25;;;19.40;38.10;;;;;;5031147;28;20108;-70
2021/04/11 12:36:02;;;;;;;8.90;5.43;;;19.70;34.00;;;;;;5029519;28;20124;-70
2021/04/11 12:38:46;;;;;;;9.77;5.57;;;19.70;34.10;;;;;;5025831;28;20041;-69
2021/04/11 12:41:22;;;;;;;6.82;5.15;;;19.90;35.20;;;;;;5014596;28;20030;-69
2021/04/11 12:44:00;;;;;;;9.15;4.95;;;20.00;34.90;;;;;;5014710;28;20022;-69
2021/04/11 12:46:39;;;;;;;11.30;4.75;;;19.70;35.70;;;;;;5014109;28;20381;-67
2021/04/11 12:49:19;;;;;;;9.73;5.28;;;19.50;36.20;;;;;;5014505;28;20618;-68
2021/04/11 12:52:17;;;;;;;8.30;4.80;;;19.00;36.50;;;;;;5014462;28;20025;-70
2021/04/11 12:55:03;;;;;;;10.00;4.95;;;19.00;36.90;;;;;;5014156;28;20385;-70
2021/04/11 12:57:38;;;;;;;8.45;4.72;;;19.00;37.10;;;;;;5014965;28;20579;-70
2021/04/11 13:00:09;;;;;;;7.13;5.55;;;18.80;37.90;;;;;;5037762;28;20028;-71
2021/04/11 13:03:12;;;;;;;16.63;5.75;;;18.70;37.90;;;;;;5022753;28;20025;-70
2021/04/11 13:05:48;;;;;;;16.35;5.93;;;18.70;38.70;;;;;;5020437;28;20029;-70
2021/04/11 13:08:38;;;;;;;8.02;4.68;;;18.80;38.10;;;;;;5029397;28;20026;-70
2021/04/11 13:11:23;;;;;;;7.97;4.90;;;19.00;37.70;;;;;;5014796;28;20026;-70
2021/04/11 13:14:15;;;;;;;9.68;5.55;;;19.00;37.80;;;;;;5017677;28;20033;-70
2021/04/11 13:16:58;;;;;;;13.38;5.78;;;19.10;37.50;;;;;;5033201;28;20021;-70
2021/04/11 13:19:27;;;;;;;9.18;5.25;;;19.10;37.60;;;;;;5049086;28;20224;-70
2021/04/11 13:22:13;;;;;;;8.38;4.85;;;19.10;37.10;;;;;;5048905;28;20395;-69
2021/04/11 13:25:00;;;;;;;9.23;4.53;;;19.20;37.40;;;;;;5033907;28;20022;-71
2021/04/11 13:27:27;;;;;;;9.68;4.63;;;19.20;37.80;;;;;;5033197;28;20049;-69
2021/04/11 13:30:16;;;;;;;8.50;5.40;;;19.20;36.60;;;;;;5033773;28;20036;-71
2021/04/11 13:32:55;;;;;;;7.72;5.15;;;19.20;36.70;;;;;;5032762;28;20693;-69
2021/04/11 13:35:52;;;;;;;14.52;5.05;;;19.00;36.90;;;;;;5048623;28;20033;-69
2021/04/11 13:38:23;;;;;;;10.52;5.82;;;19.10;37.10;;;;;;5032882;28;20029;-70
2021/04/11 13:40:49;;;;;;;12.00;5.18;;;18.90;37.70;;;;;;5033584;28;20056;-69
2021/04/11 13:43:35;;;;;;;11.73;5.25;;;18.90;38.40;;;;;;5033293;28;20021;-68
2021/04/11 13:46:11;;;;;;;7.68;5.35;;;18.90;37.70;;;;;;5033276;28;20022;-68
2021/04/11 13:48:39;;;;;;;7.28;5.07;;;18.80;37.10;;;;;;5033522;28;20491;-67